createdAt,value
2022-09-05T03:43:06.379Z,100.00
2022-09-05T03:46:28.125Z,100.00
2022-09-05T03:54:17.078Z,100.00
2022-09-05T03:57:23.407Z,100.00
2022-09-05T04:00:47.495Z,100.00
2022-09-05T04:08:17.305Z,100.00
2022-09-05T04:08:24.291Z,100.00
2022-09-05T04:11:03.496Z,100.00
2022-09-05T04:14:13.874Z,100.00
2022-09-05T04:17:26.113Z,100.00
2022-09-05T04:20:48.718Z,100.00
2022-09-05T04:23:57.363Z,100.00
2022-09-05T04:27:28.292Z,100.00
2022-09-05T04:30:46.719Z,100.00
2022-09-05T04:34:15.861Z,100.00
2022-09-05T04:37:48.947Z,100.00
2022-09-05T04:41:03.438Z,100.00
2022-09-05T04:44:14.855Z,100.00
2022-09-05T04:47:41.421Z,100.00
2022-09-05T04:51:15.696Z,100.00
2022-09-05T04:54:47.242Z,100.00
2022-09-05T04:58:10.325Z,100.00
2022-09-05T05:06:05.533Z,100.00
2022-09-05T05:06:11.750Z,100.00
2022-09-05T05:08:38.148Z,100.00
2022-09-05T05:15:41.990Z,100.00
2022-09-05T05:17:54.385Z,100.00
2022-09-05T05:19:18.973Z,100.00
2022-09-05T05:22:23.358Z,100.00
2022-09-05T05:25:27.505Z,100.00
2022-09-05T05:28:59.587Z,100.00
2022-09-05T05:32:04.203Z,100.00
2022-09-05T05:35:15.805Z,100.00
2022-09-05T05:38:45.906Z,100.00
2022-09-05T05:41:52.778Z,100.00
2022-09-05T05:44:57.900Z,100.00
2022-09-05T05:48:29.703Z,100.00
2022-09-05T05:52:02.397Z,100.00
2022-09-05T05:55:37.547Z,100.00
2022-09-05T05:59:09.656Z,100.00
2022-09-05T06:03:24.621Z,100.00
2022-09-05T06:06:45.067Z,100.00
2022-09-05T06:14:49.614Z,100.00
2022-09-05T06:15:04.722Z,100.00
2022-09-05T06:17:28.069Z,100.00
2022-09-05T06:22:06.056Z,100.00
2022-09-05T06:24:33.780Z,100.00
2022-09-05T06:27:43.901Z,99.53
2022-09-05T06:31:30.696Z,99.75
2022-09-05T06:35:06.867Z,97.15
2022-09-05T06:38:39.247Z,93.20
2022-09-05T06:41:48.181Z,91.64
2022-09-05T06:45:27.291Z,90.19
2022-09-05T06:49:31.113Z,87.75
2022-09-05T06:52:41.919Z,89.08
2022-09-05T06:55:55.214Z,88.40
2022-09-05T06:59:19.350Z,86.07
2022-09-05T07:02:58.922Z,86.01
2022-09-05T07:06:06.000Z,86.41
2022-09-05T07:09:31.467Z,82.86
2022-09-05T07:13:09.351Z,82.39
2022-09-05T07:16:38.015Z,80.69
2022-09-05T07:19:47.688Z,78.23
2022-09-05T07:23:54.865Z,79.46
2022-09-05T07:26:59.405Z,78.34
2022-09-05T07:30:03.212Z,76.44
2022-09-05T07:33:06.389Z,76.58
2022-09-05T07:36:14.885Z,75.81
2022-09-05T07:39:29.137Z,75.28
2022-09-05T07:42:39.504Z,72.01
2022-09-05T07:45:56.227Z,72.42
2022-09-05T07:49:05.092Z,72.13
2022-09-05T07:56:56.491Z,70.70
2022-09-05T07:57:00.271Z,69.58
2022-09-05T07:59:08.494Z,67.56
2022-09-05T08:02:13.003Z,66.91
2022-09-05T08:05:25.985Z,66.44
2022-09-05T08:09:21.308Z,63.45
2022-09-05T08:12:32.848Z,63.56
2022-09-05T08:16:10.674Z,64.94
2022-09-05T08:19:57.896Z,63.08
2022-09-05T08:23:40.261Z,60.41
2022-09-05T08:26:58.660Z,58.04
2022-09-05T08:30:25.739Z,59.00
2022-09-05T08:33:36.158Z,57.22
2022-09-05T08:36:48.875Z,58.47
2022-09-05T08:40:09.646Z,57.15
2022-09-05T08:46:35.340Z,56.46
2022-09-05T08:47:14.658Z,55.60
2022-09-05T08:50:33.126Z,55.50
2022-09-05T08:54:03.384Z,53.97
2022-09-05T08:57:20.457Z,53.38
2022-09-05T09:00:31.214Z,53.41
2022-09-05T09:03:52.611Z,51.49
2022-09-05T09:07:50.594Z,51.12
2022-09-05T09:10:57.385Z,51.10
2022-09-05T09:14:38.282Z,50.79
2022-09-05T09:17:43.026Z,50.84
2022-09-05T09:20:48.914Z,50.02
2022-09-05T09:24:06.596Z,48.68
2022-09-05T09:27:22.860Z,50.23
2022-09-05T09:30:43.187Z,50.07
2022-09-05T09:34:08.584Z,49.97
2022-09-05T09:37:49.850Z,50.03
2022-09-05T09:41:28.932Z,47.98
2022-09-05T09:44:55.933Z,49.11
2022-09-05T09:48:10.657Z,48.08
2022-09-05T09:51:29.223Z,48.46
2022-09-05T09:55:09.657Z,46.49
2022-09-05T09:58:41.816Z,47.51
2022-09-05T10:02:00.958Z,46.19
2022-09-05T10:10:39.725Z,44.88
2022-09-05T10:10:53.747Z,44.73
2022-09-05T10:13:08.680Z,45.52
2022-09-05T10:16:27.146Z,44.45
2022-09-05T10:20:09.520Z,45.62
2022-09-05T10:23:31.675Z,42.39
2022-09-05T10:26:57.681Z,42.38
2022-09-05T10:30:31.936Z,43.65
2022-09-05T10:35:13.600Z,43.19
2022-09-05T10:38:10.664Z,44.28
2022-09-05T10:41:21.670Z,43.70
2022-09-05T10:44:43.807Z,41.84
2022-09-05T10:48:14.129Z,40.60
2022-09-05T10:51:32.490Z,40.59
2022-09-05T10:55:15.124Z,40.12
2022-09-05T11:02:18.961Z,40.86
2022-09-05T11:02:28.222Z,41.36
2022-09-05T11:05:34.847Z,41.31
2022-09-05T11:09:06.185Z,42.64
2022-09-05T11:12:38.555Z,43.04
2022-09-05T11:16:04.491Z,43.27
2022-09-05T11:19:29.138Z,41.86
2022-09-05T11:22:39.104Z,42.79
2022-09-05T11:25:43.091Z,40.23
2022-09-05T11:29:00.467Z,40.92
2022-09-05T11:32:42.141Z,39.44
2022-09-05T11:39:47.376Z,36.10
2022-09-05T11:39:53.716Z,37.33
2022-09-05T11:42:43.892Z,37.87
2022-09-05T11:46:21.180Z,36.55
2022-09-05T11:49:47.114Z,34.15
2022-09-05T11:53:05.003Z,35.63
2022-09-05T11:56:10.852Z,33.35
2022-09-05T11:59:32.818Z,34.26
2022-09-05T12:03:11.815Z,32.80
2022-09-05T12:06:49.363Z,32.53
2022-09-05T12:10:02.282Z,32.36
2022-09-05T12:13:29.139Z,32.30
2022-09-05T12:16:41.776Z,33.17
2022-09-05T12:20:26.705Z,35.30
2022-09-05T12:24:24.832Z,33.57
2022-09-05T12:27:42.467Z,32.05
2022-09-05T12:30:57.097Z,30.33
2022-09-05T12:36:06.371Z,28.81
2022-09-05T12:40:57.720Z,31.74
2022-09-05T12:41:44.543Z,31.08
2022-09-05T12:44:50.285Z,29.47
2022-09-05T12:48:22.564Z,24.99
2022-09-05T12:51:47.030Z,28.77
2022-09-05T12:54:59.292Z,26.41
2022-09-05T13:02:58.007Z,25.94
2022-09-05T13:03:06.816Z,25.71
2022-09-05T13:05:09.980Z,26.18
2022-09-05T13:08:21.086Z,23.09
2022-09-05T13:14:50.100Z,21.18
2022-09-05T13:15:14.038Z,18.27
2022-09-05T13:18:27.303Z,16.29
2022-09-05T13:21:31.543Z,17.07
2022-09-05T13:24:41.393Z,16.17
2022-09-05T13:27:56.671Z,16.23
2022-09-05T13:38:06.156Z,14.66
2022-09-05T13:38:20.602Z,15.45
2022-09-05T13:39:13.176Z,16.10
2022-09-05T13:42:20.127Z,16.41
2022-09-05T13:45:22.934Z,19.26
2022-09-05T13:52:29.085Z,19.95
2022-09-05T13:55:41.492Z,18.43
2022-09-05T13:58:56.684Z,21.50
2022-09-05T14:03:30.037Z,25.83
2022-09-05T14:06:45.689Z,29.46
2022-09-05T14:10:13.362Z,30.21
2022-09-05T14:13:24.531Z,23.75
2022-09-05T14:16:34.059Z,19.33
2022-09-05T14:20:08.287Z,19.99
2022-09-05T14:23:15.694Z,23.05
2022-09-05T14:26:25.458Z,26.93
2022-09-05T14:29:44.326Z,29.46
2022-09-05T14:37:36.587Z,31.09
2022-09-05T14:37:50.391Z,30.56
2022-09-05T14:40:38.135Z,31.15
2022-09-05T14:44:05.847Z,30.91
2022-09-05T14:47:47.678Z,32.27
2022-09-05T14:51:09.602Z,30.88
2022-09-05T15:02:43.150Z,25.94
2022-09-05T15:02:58.157Z,28.89
2022-09-05T15:04:44.497Z,22.15
2022-09-05T15:08:00.639Z,20.92
2022-09-05T15:12:17.840Z,21.42
2022-09-05T15:14:33.151Z,19.49
2022-09-05T15:17:36.324Z,16.61
2022-09-05T15:20:42.485Z,16.23
2022-09-05T15:23:57.951Z,15.11
2022-09-05T15:27:02.618Z,16.44
2022-09-05T15:30:06.569Z,17.16
2022-09-05T15:33:30.672Z,20.10
2022-09-05T15:36:36.562Z,21.67
